Time;durP1;ratioP1;P1;durP2;ratioP2;P2;SDS_P1;SDS_P2;PMS_P1;PMS_P2;Temp;Humidity;BMP_temperature;BMP_pressure;BME280_temperature;BME280_humidity;BME280_pressure;Samples;Min_cycle;Max_cycle;Signal;HPM_P1;HPM_P2
2020/12/30 00:00:51;;;;;;;11.02;5.93;;;;;;;;;;5056821;28;20099;-56
2020/12/30 00:03:17;;;;;;;12.00;5.35;;;;;;;;;;5055951;28;20068;-56
2020/12/30 00:05:43;;;;;;;12.52;6.07;;;;;;;;;;5067853;28;20017;-59
2020/12/30 00:08:09;;;;;;;14.63;6.25;;;;;;;;;;5067552;28;20041;-57
2020/12/30 00:10:35;;;;;;;11.05;5.10;;;;;;;;;;5073856;28;20107;-59
2020/12/30 00:13:01;;;;;;;19.92;8.95;;;;;;;;;;5073440;28;20027;-56
2020/12/30 00:15:27;;;;;;;31.73;16.63;;;;;;;;;;5056526;28;20484;-55
2020/12/30 00:17:54;;;;;;;32.60;17.42;;;;;;;;;;5065718;28;20033;-58
2020/12/30 00:20:23;;;;;;;16.73;8.70;;;;;;;;;;5070098;28;20025;-55
2020/12/30 00:22:49;;;;;;;18.67;8.30;;;;;;;;;;5068480;28;20037;-55
2020/12/30 00:25:17;;;;;;;14.73;6.00;;;;;;;;;;5073560;28;20098;-56
2020/12/30 00:27:44;;;;;;;8.30;3.70;;;;;;;;;;5074051;28;20071;-56
2020/12/30 00:30:14;;;;;;;11.98;3.80;;;;;;;;;;5074123;28;20032;-57
2020/12/30 00:32:41;;;;;;;11.40;3.83;;;;;;;;;;5072838;28;20036;-56
2020/12/30 00:35:07;;;;;;;11.55;3.75;;;;;;;;;;5060473;28;20036;-56
2020/12/30 00:37:33;;;;;;;8.45;3.50;;;;;;;;;;5040757;28;20052;-58
2020/12/30 00:39:59;;;;;;;41.80;24.70;;;;;;;;;;5059564;28;20374;-58
2020/12/30 00:42:32;;;;;;;21.80;13.20;;;;;;;;;;5058549;28;20399;-57
2020/12/30 00:44:58;;;;;;;22.08;11.98;;;;;;;;;;5056854;28;20033;-57
2020/12/30 00:47:24;;;;;;;12.45;5.70;;;;;;;;;;5062547;28;20122;-54
2020/12/30 00:49:50;;;;;;;14.43;6.03;;;;;;;;;;5063097;28;20147;-65
2020/12/30 00:52:16;;;;;;;10.13;3.70;;;;;;;;;;5073712;28;20055;-57
2020/12/30 00:54:42;;;;;;;7.45;3.53;;;;;;;;;;5068437;28;20029;-55
2020/12/30 00:57:08;;;;;;;9.23;3.55;;;;;;;;;;5066578;28;20039;-55
2020/12/30 00:59:34;;;;;;;10.38;4.43;;;;;;;;;;5047511;28;20035;-53
2020/12/30 01:02:00;;;;;;;9.50;3.78;;;;;;;;;;5053261;28;20776;-56
2020/12/30 01:04:26;;;;;;;11.50;3.63;;;;;;;;;;5057744;28;20071;-55
2020/12/30 01:06:53;;;;;;;8.02;3.05;;;;;;;;;;5054788;28;20021;-57
2020/12/30 01:09:23;;;;;;;8.10;2.92;;;;;;;;;;5055879;28;20027;-56
2020/12/30 01:11:49;;;;;;;8.25;3.22;;;;;;;;;;5059338;28;20092;-54
2020/12/30 01:14:15;;;;;;;10.43;3.78;;;;;;;;;;5073094;28;20490;-56
2020/12/30 01:16:41;;;;;;;9.43;3.47;;;;;;;;;;5072499;28;20078;-56
2020/12/30 01:19:07;;;;;;;11.52;4.53;;;;;;;;;;5060072;28;20021;-56
2020/12/30 01:21:40;;;;;;;10.23;3.75;;;;;;;;;;5073084;28;20020;-55
2020/12/30 01:24:06;;;;;;;5.90;3.00;;;;;;;;;;5072794;28;20044;-55
2020/12/30 01:26:32;;;;;;;8.68;3.40;;;;;;;;;;5072800;28;20074;-57
2020/12/30 01:28:59;;;;;;;8.70;3.50;;;;;;;;;;5072812;28;20107;-54
2020/12/30 01:31:28;;;;;;;8.30;3.20;;;;;;;;;;5072762;28;20028;-56
2020/12/30 01:33:54;;;;;;;7.25;3.30;;;;;;;;;;5073074;28;20479;-54
2020/12/30 01:36:21;;;;;;;9.45;3.50;;;;;;;;;;5072902;28;20025;-56
2020/12/30 01:38:47;;;;;;;9.35;3.03;;;;;;;;;;5072858;28;20141;-56
2020/12/30 01:41:13;;;;;;;8.52;3.03;;;;;;;;;;5075400;28;20016;-56
2020/12/30 01:43:40;;;;;;;8.15;3.10;;;;;;;;;;5072782;28;20384;-55
2020/12/30 01:46:06;;;;;;;4.68;2.42;;;;;;;;;;5073027;28;20025;-56
2020/12/30 01:48:33;;;;;;;7.40;2.90;;;;;;;;;;5072516;28;20032;-56
2020/12/30 01:51:00;;;;;;;6.88;2.50;;;;;;;;;;5072900;28;20111;-56
2020/12/30 01:53:26;;;;;;;8.45;2.97;;;;;;;;;;5072375;28;20107;-56
2020/12/30 01:55:53;;;;;;;5.63;2.78;;;;;;;;;;5072229;28;20484;-56
2020/12/30 01:58:19;;;;;;;5.82;2.42;;;;;;;;;;5072435;28;20086;-55
2020/12/30 02:00:48;;;;;;;7.78;2.47;;;;;;;;;;5072191;28;20020;-56
2020/12/30 02:03:15;;;;;;;6.88;2.40;;;;;;;;;;5072030;28;20028;-56
2020/12/30 02:05:42;;;;;;;6.45;2.45;;;;;;;;;;5069433;28;20099;-55
2020/12/30 02:08:09;;;;;;;6.93;2.45;;;;;;;;;;5053080;28;20079;-56
2020/12/30 02:10:35;;;;;;;6.47;2.67;;;;;;;;;;5068706;28;20462;-56
2020/12/30 02:13:01;;;;;;;8.60;2.83;;;;;;;;;;5061990;28;20061;-55
2020/12/30 02:15:28;;;;;;;4.50;2.70;;;;;;;;;;5052922;28;20021;-55
2020/12/30 02:17:55;;;;;;;7.65;2.67;;;;;;;;;;5051971;28;20017;-55
2020/12/30 02:20:22;;;;;;;6.25;2.67;;;;;;;;;;5054320;28;20441;-55
2020/12/30 02:22:56;;;;;;;4.55;2.17;;;;;;;;;;5057752;28;20044;-56
2020/12/30 02:25:22;;;;;;;7.35;2.50;;;;;;;;;;5056813;28;20109;-55
2020/12/30 02:27:48;;;;;;;5.30;2.33;;;;;;;;;;5057567;28;20040;-55
2020/12/30 02:30:14;;;;;;;7.60;2.63;;;;;;;;;;5064055;28;20025;-55
2020/12/30 02:32:40;;;;;;;6.72;2.50;;;;;;;;;;5067027;28;20064;-55
2020/12/30 02:35:06;;;;;;;5.82;2.50;;;;;;;;;;5054876;28;20372;-55
2020/12/30 02:37:32;;;;;;;5.90;2.30;;;;;;;;;;5052232;28;20473;-53
2020/12/30 02:39:59;;;;;;;5.50;2.50;;;;;;;;;;5052274;28;20106;-54
2020/12/30 02:42:25;;;;;;;8.00;2.50;;;;;;;;;;5051813;28;20036;-55
2020/12/30 02:44:55;;;;;;;5.13;2.47;;;;;;;;;;5069161;28;20043;-56
2020/12/30 02:47:21;;;;;;;8.95;2.40;;;;;;;;;;5072013;28;20039;-56
2020/12/30 02:49:47;;;;;;;5.13;2.08;;;;;;;;;;5072123;28;20505;-56
2020/12/30 02:52:13;;;;;;;5.32;2.45;;;;;;;;;;5071878;28;20029;-56
2020/12/30 02:54:39;;;;;;;7.22;2.47;;;;;;;;;;5071843;28;20033;-56
2020/12/30 02:57:05;;;;;;;5.88;2.50;;;;;;;;;;5072158;28;20415;-56
2020/12/30 02:59:31;;;;;;;5.93;2.10;;;;;;;;;;5071678;28;20484;-56
2020/12/30 03:01:57;;;;;;;5.20;2.17;;;;;;;;;;5071811;28;20074;-56
2020/12/30 03:04:24;;;;;;;6.85;2.67;;;;;;;;;;5072053;28;20078;-56
2020/12/30 03:06:50;;;;;;;13.27;4.70;;;;;;;;;;5073287;28;20033;-56
2020/12/30 03:09:16;;;;;;;9.18;2.38;;;;;;;;;;5075397;28;20039;-56
2020/12/30 03:11:42;;;;;;;4.78;2.30;;;;;;;;;;5075832;28;20024;-55
2020/12/30 03:14:08;;;;;;;7.45;2.30;;;;;;;;;;5075220;28;20052;-54
2020/12/30 03:16:34;;;;;;;5.70;2.15;;;;;;;;;;5075701;28;20051;-56
2020/12/30 03:19:00;;;;;;;5.20;2.10;;;;;;;;;;5075310;28;20051;-56
2020/12/30 03:21:26;;;;;;;7.43;2.40;;;;;;;;;;5075562;28;20042;-56
2020/12/30 03:23:52;;;;;;;9.18;4.05;;;;;;;;;;5056965;28;20444;-56
2020/12/30 03:26:18;;;;;;;7.65;2.47;;;;;;;;;;5074841;28;20060;-55
2020/12/30 03:28:44;;;;;;;6.90;2.20;;;;;;;;;;5075135;28;20036;-56
2020/12/30 03:31:10;;;;;;;4.65;1.70;;;;;;;;;;5075116;28;20028;-56
2020/12/30 03:33:36;;;;;;;7.70;1.83;;;;;;;;;;5075230;28;20082;-56
2020/12/30 03:36:02;;;;;;;4.82;1.60;;;;;;;;;;5075180;28;20122;-56
2020/12/30 03:38:28;;;;;;;5.60;1.50;;;;;;;;;;5074899;28;20518;-56
2020/12/30 03:40:54;;;;;;;7.32;1.90;;;;;;;;;;5075189;28;20032;-56
2020/12/30 03:43:20;;;;;;;5.93;2.90;;;;;;;;;;5074739;28;20024;-56
2020/12/30 03:45:46;;;;;;;7.57;2.00;;;;;;;;;;5074926;28;20495;-56
2020/12/30 03:48:12;;;;;;;10.95;2.00;;;;;;;;;;5074637;28;20043;-56
2020/12/30 03:50:38;;;;;;;4.13;1.60;;;;;;;;;;5074807;28;20021;-56
2020/12/30 03:53:04;;;;;;;6.38;1.85;;;;;;;;;;5074650;28;20021;-56
2020/12/30 03:55:30;;;;;;;6.57;1.85;;;;;;;;;;5074399;28;20028;-56
2020/12/30 03:57:56;;;;;;;3.25;1.27;;;;;;;;;;5074709;28;20052;-56
2020/12/30 04:00:22;;;;;;;4.78;1.58;;;;;;;;;;5074445;28;20020;-56
2020/12/30 04:02:48;;;;;;;4.78;1.70;;;;;;;;;;5074621;28;20098;-56
2020/12/30 04:05:14;;;;;;;4.22;1.50;;;;;;;;;;5074404;28;20024;-56
2020/12/30 04:07:40;;;;;;;5.18;1.60;;;;;;;;;;5074628;28;20071;-56
2020/12/30 04:10:06;;;;;;;4.25;1.65;;;;;;;;;;5074292;28;20104;-56
2020/12/30 04:12:32;;;;;;;5.65;1.77;;;;;;;;;;5074657;28;20059;-56
2020/12/30 04:14:58;;;;;;;6.07;1.83;;;;;;;;;;5074512;28;20417;-55
2020/12/30 04:17:24;;;;;;;8.45;2.30;;;;;;;;;;5074237;28;20020;-56
2020/12/30 04:19:50;;;;;;;4.72;2.53;;;;;;;;;;5074371;28;20028;-56
2020/12/30 04:22:16;;;;;;;11.35;5.22;;;;;;;;;;5074166;28;20028;-56
2020/12/30 04:24:42;;;;;;;7.57;2.80;;;;;;;;;;5055916;28;20403;-56
2020/12/30 04:27:08;;;;;;;9.85;3.60;;;;;;;;;;5074055;28;20535;-56
2020/12/30 04:29:34;;;;;;;9.82;3.13;;;;;;;;;;5074377;28;20411;-56
2020/12/30 04:32:00;;;;;;;8.27;3.70;;;;;;;;;;5073825;28;20025;-55
2020/12/30 04:34:26;;;;;;;11.43;3.00;;;;;;;;;;5073791;28;20490;-56
2020/12/30 04:36:52;;;;;;;9.02;2.95;;;;;;;;;;5073300;28;20021;-55
2020/12/30 04:39:19;;;;;;;7.20;2.65;;;;;;;;;;5073720;28;20056;-56
2020/12/30 04:41:45;;;;;;;9.93;3.03;;;;;;;;;;5073604;28;20114;-57
2020/12/30 04:44:13;;;;;;;8.77;2.70;;;;;;;;;;5073919;28;20107;-56
2020/12/30 04:46:40;;;;;;;5.05;2.10;;;;;;;;;;5073426;28;20078;-57
2020/12/30 04:49:06;;;;;;;3.53;1.50;;;;;;;;;;5056201;28;20049;-56
2020/12/30 04:51:34;;;;;;;6.85;1.42;;;;;;;;;;5073492;28;20103;-56
2020/12/30 04:54:00;;;;;;;3.55;1.33;;;;;;;;;;5073718;28;20139;-56
2020/12/30 04:56:54;;;;;;;5.03;1.58;;;;;;;;;;5074046;28;20032;-56
2020/12/30 04:59:22;;;;;;;6.90;2.00;;;;;;;;;;5063565;28;20353;-56
2020/12/30 05:01:50;;;;;;;7.43;1.70;;;;;;;;;;5073422;28;20021;-56
2020/12/30 05:04:17;;;;;;;6.53;1.85;;;;;;;;;;5073585;28;20025;-55
2020/12/30 05:06:47;;;;;;;8.45;2.10;;;;;;;;;;5073442;28;20067;-55
2020/12/30 05:09:13;;;;;;;6.97;1.67;;;;;;;;;;5063082;28;20504;-56
2020/12/30 05:11:39;;;;;;;6.05;1.70;;;;;;;;;;5073570;28;20373;-55
2020/12/30 05:14:05;;;;;;;6.68;1.95;;;;;;;;;;5072974;28;20024;-56
2020/12/30 05:16:31;;;;;;;5.63;2.10;;;;;;;;;;5073475;28;20036;-57
2020/12/30 05:19:07;;;;;;;4.30;1.65;;;;;;;;;;5073034;28;20024;-56
2020/12/30 05:21:33;;;;;;;6.68;1.88;;;;;;;;;;5073317;28;20456;-56
2020/12/30 05:23:59;;;;;;;5.90;2.20;;;;;;;;;;5072530;28;20045;-56
2020/12/30 05:26:25;;;;;;;6.47;2.50;;;;;;;;;;5062143;28;20384;-56
2020/12/30 05:28:53;;;;;;;4.78;2.20;;;;;;;;;;5072376;28;20040;-58
2020/12/30 05:31:19;;;;;;;9.30;1.95;;;;;;;;;;5060280;28;20038;-55
2020/12/30 05:33:45;;;;;;;9.45;3.38;;;;;;;;;;5072914;28;20028;-55
2020/12/30 05:36:11;;;;;;;7.03;3.00;;;;;;;;;;5072333;28;20104;-56
2020/12/30 05:38:37;;;;;;;7.30;3.03;;;;;;;;;;5055248;28;20020;-53
2020/12/30 05:41:03;;;;;;;7.57;3.00;;;;;;;;;;5055130;28;20476;-55
2020/12/30 05:43:29;;;;;;;9.27;3.28;;;;;;;;;;5072532;28;20499;-56
2020/12/30 05:45:56;;;;;;;7.00;2.40;;;;;;;;;;5072860;28;20048;-57
2020/12/30 05:48:22;;;;;;;7.75;2.50;;;;;;;;;;5072548;28;20029;-57
2020/12/30 05:50:48;;;;;;;8.20;3.08;;;;;;;;;;5072654;28;20074;-55
2020/12/30 05:53:15;;;;;;;6.60;2.25;;;;;;;;;;5072530;28;20028;-56
2020/12/30 05:55:41;;;;;;;6.47;2.38;;;;;;;;;;5066832;28;20025;-56
2020/12/30 05:58:09;;;;;;;8.82;2.38;;;;;;;;;;5072475;28;20037;-56
2020/12/30 06:00:35;;;;;;;6.20;2.55;;;;;;;;;;5072560;28;20024;-56
2020/12/30 06:03:01;;;;;;;8.57;2.53;;;;;;;;;;5054885;28;20033;-56
2020/12/30 06:05:28;;;;;;;6.20;3.05;;;;;;;;;;5072540;28;20374;-56
2020/12/30 06:07:55;;;;;;;8.45;2.90;;;;;;;;;;5072393;28;20021;-56
2020/12/30 06:10:23;;;;;;;8.38;3.80;;;;;;;;;;5071495;28;20047;-57
2020/12/30 06:12:50;;;;;;;10.30;4.55;;;;;;;;;;5072205;28;20047;-56
2020/12/30 06:15:18;;;;;;;9.25;4.00;;;;;;;;;;5071946;28;20464;-54
2020/12/30 06:17:59;;;;;;;10.45;5.18;;;;;;;;;;5072379;28;20024;-56
2020/12/30 06:20:30;;;;;;;11.10;4.60;;;;;;;;;;5071993;28;20079;-55
2020/12/30 06:22:57;;;;;;;10.48;4.72;;;;;;;;;;5072542;28;20392;-55
2020/12/30 06:25:24;;;;;;;15.48;6.78;;;;;;;;;;5072020;28;20052;-56
2020/12/30 06:27:51;;;;;;;13.98;6.85;;;;;;;;;;5065091;28;20041;-55
2020/12/30 06:30:17;;;;;;;12.30;5.63;;;;;;;;;;5072167;28;20031;-56
2020/12/30 06:32:43;;;;;;;11.80;6.25;;;;;;;;;;5072082;28;20074;-56
2020/12/30 06:35:10;;;;;;;17.02;8.00;;;;;;;;;;5067216;28;20025;-56
2020/12/30 06:37:37;;;;;;;20.23;10.13;;;;;;;;;;5066697;28;20052;-56
2020/12/30 06:40:22;;;;;;;18.30;8.82;;;;;;;;;;5072240;28;20017;-57
2020/12/30 06:42:49;;;;;;;14.65;8.05;;;;;;;;;;5075765;28;20472;-57
2020/12/30 06:45:15;;;;;;;15.23;6.50;;;;;;;;;;5076429;28;20095;-57
2020/12/30 06:48:00;;;;;;;17.05;7.32;;;;;;;;;;5076252;28;20025;-56
2020/12/30 06:50:27;;;;;;;14.48;7.38;;;;;;;;;;5076050;28;20032;-66
2020/12/30 06:52:53;;;;;;;15.82;7.40;;;;;;;;;;5075909;28;20025;-56
2020/12/30 06:55:39;;;;;;;14.10;5.88;;;;;;;;;;5076176;28;20036;-56
2020/12/30 06:58:05;;;;;;;22.08;10.15;;;;;;;;;;5075973;28;20455;-57
2020/12/30 07:00:38;;;;;;;349.45;166.00;;;;;;;;;;5075885;28;20507;-56
2020/12/30 07:03:17;;;;;;;990.17;478.48;;;;;;;;;;5075914;28;20090;-56
2020/12/30 07:05:44;;;;;;;492.42;251.90;;;;;;;;;;5062377;28;20024;-56
2020/12/30 07:08:11;;;;;;;182.98;99.10;;;;;;;;;;5075756;28;20064;-56
2020/12/30 07:10:41;;;;;;;210.35;128.38;;;;;;;;;;5075432;28;20024;-56
2020/12/30 07:13:07;;;;;;;51.42;29.73;;;;;;;;;;5075927;28;20423;-56
2020/12/30 07:15:33;;;;;;;233.35;138.10;;;;;;;;;;5075447;28;20395;-56
2020/12/30 07:17:59;;;;;;;114.32;64.85;;;;;;;;;;5073523;28;20368;-56
2020/12/30 07:20:25;;;;;;;52.97;30.98;;;;;;;;;;5075259;28;20025;-56
2020/12/30 07:22:51;;;;;;;131.82;86.35;;;;;;;;;;5075010;28;20025;-56
2020/12/30 07:25:18;;;;;;;81.03;51.28;;;;;;;;;;5074797;28;20048;-56
2020/12/30 07:27:44;;;;;;;49.97;30.13;;;;;;;;;;5075243;28;20036;-56
2020/12/30 07:30:11;;;;;;;94.57;61.67;;;;;;;;;;5075270;28;20024;-56
2020/12/30 07:32:37;;;;;;;45.53;26.40;;;;;;;;;;5075236;28;20016;-56
2020/12/30 07:35:03;;;;;;;57.58;33.55;;;;;;;;;;5075041;28;20108;-56
2020/12/30 07:37:29;;;;;;;72.68;41.22;;;;;;;;;;5075263;28;20063;-56
2020/12/30 07:39:55;;;;;;;43.67;26.25;;;;;;;;;;5074948;28;20021;-57
2020/12/30 07:42:27;;;;;;;58.28;36.60;;;;;;;;;;5074616;28;20095;-56
2020/12/30 07:44:57;;;;;;;132.52;83.88;;;;;;;;;;5074944;28;20074;-55
2020/12/30 07:47:24;;;;;;;77.82;45.83;;;;;;;;;;5074755;28;20086;-56
2020/12/30 07:49:50;;;;;;;33.30;17.38;;;;;;;;;;5074949;28;20028;-56
2020/12/30 07:52:16;;;;;;;25.83;13.25;;;;;;;;;;5074182;28;20032;-55
2020/12/30 07:54:42;;;;;;;25.83;13.25;;;;;;;;;;5073998;28;20095;-56
2020/12/30 07:57:13;;;;;;;34.40;14.82;;;;;;;;;;5074619;28;20043;-55
2020/12/30 07:59:39;;;;;;;21.63;9.73;;;;;;;;;;5074537;28;20387;-56
2020/12/30 08:02:06;;;;;;;28.05;14.30;;;;;;;;;;5074602;28;20024;-56
2020/12/30 08:04:33;;;;;;;26.50;9.63;;;;;;;;;;5074586;28;20033;-56
2020/12/30 08:07:02;;;;;;;27.23;13.38;;;;;;;;;;5074454;28;20487;-55
2020/12/30 08:09:29;;;;;;;29.75;13.82;;;;;;;;;;5074146;28;20035;-56
2020/12/30 08:11:56;;;;;;;19.58;9.25;;;;;;;;;;5060176;28;20077;-56
2020/12/30 08:14:23;;;;;;;19.02;9.18;;;;;;;;;;5074532;28;20024;-56
2020/12/30 08:16:55;;;;;;;13.13;6.20;;;;;;;;;;5074459;28;20077;-53
2020/12/30 08:19:33;;;;;;;13.95;6.30;;;;;;;;;;5074567;28;20021;-55
2020/12/30 08:22:11;;;;;;;11.95;5.65;;;;;;;;;;5074168;28;20028;-56
2020/12/30 08:24:39;;;;;;;11.93;6.00;;;;;;;;;;5074197;28;20049;-56
2020/12/30 08:27:05;;;;;;;13.35;5.80;;;;;;;;;;5073938;28;20036;-56
2020/12/30 08:29:40;;;;;;;13.02;6.15;;;;;;;;;;5074259;28;20028;-56
2020/12/30 08:32:23;;;;;;;20.80;11.45;;;;;;;;;;5074180;28;20021;-57
2020/12/30 08:34:53;;;;;;;17.90;8.25;;;;;;;;;;5074143;28;20025;-56
2020/12/30 08:37:26;;;;;;;16.10;7.70;;;;;;;;;;5074043;28;20020;-56
2020/12/30 08:40:04;;;;;;;19.95;10.40;;;;;;;;;;5074252;28;20020;-56
2020/12/30 08:42:46;;;;;;;24.30;8.65;;;;;;;;;;5073785;28;20047;-56
2020/12/30 08:45:13;;;;;;;18.17;9.13;;;;;;;;;;5073883;28;20033;-56
2020/12/30 08:47:39;;;;;;;18.83;8.88;;;;;;;;;;5073719;28;20448;-56
2020/12/30 08:50:07;;;;;;;18.70;8.68;;;;;;;;;;5073950;28;20492;-56
2020/12/30 08:52:43;;;;;;;21.23;8.63;;;;;;;;;;5073732;28;20020;-56
2020/12/30 08:55:09;;;;;;;19.05;9.40;;;;;;;;;;5073658;28;20062;-56
2020/12/30 08:57:36;;;;;;;18.67;9.25;;;;;;;;;;5073687;28;20100;-58
2020/12/30 09:00:31;;;;;;;23.40;12.88;;;;;;;;;;5073217;28;20036;-56
2020/12/30 09:03:10;;;;;;;21.10;10.05;;;;;;;;;;4970271;28;20030;-58
2020/12/30 09:05:36;;;;;;;33.08;17.27;;;;;;;;;;4971551;28;20082;-56
2020/12/30 09:08:11;;;;;;;18.13;9.32;;;;;;;;;;4972565;28;20039;-56
2020/12/30 09:10:37;;;;;;;28.45;14.02;;;;;;;;;;4972773;28;20110;-57
2020/12/30 09:13:15;;;;;;;16.75;9.60;;;;;;;;;;4972466;28;20030;-57
2020/12/30 09:15:41;;;;;;;23.10;12.82;;;;;;;;;;4972652;28;20031;-57
2020/12/30 09:18:07;;;;;;;22.48;11.95;;;;;;;;;;4972554;28;20387;-57
2020/12/30 09:20:34;;;;;;;20.25;11.90;;;;;;;;;;4972535;28;20046;-56
2020/12/30 09:23:01;;;;;;;16.05;8.15;;;;;;;;;;4972234;28;20041;-56
2020/12/30 09:25:28;;;;;;;20.13;12.25;;;;;;;;;;4972249;28;20054;-56
2020/12/30 09:27:54;;;;;;;20.33;11.38;;;;;;;;;;4972291;28;20042;-58
2020/12/30 09:30:23;;;;;;;25.20;12.85;;;;;;;;;;4972318;28;20110;-58
2020/12/30 09:32:49;;;;;;;31.05;17.73;;;;;;;;;;4972301;28;20035;-57
2020/12/30 09:35:17;;;;;;;26.90;14.02;;;;;;;;;;4972274;28;20066;-56
2020/12/30 09:37:50;;;;;;;56.90;33.72;;;;;;;;;;4972171;28;20035;-56
2020/12/30 09:40:16;;;;;;;36.88;20.13;;;;;;;;;;5058794;28;20045;-56
2020/12/30 09:42:44;;;;;;;17.90;10.60;;;;;;;;;;5072905;28;20044;-56
2020/12/30 09:45:11;;;;;;;18.23;10.57;;;;;;;;;;5072903;28;20024;-55
2020/12/30 09:47:38;;;;;;;31.23;18.52;;;;;;;;;;5072566;28;20126;-57
2020/12/30 09:50:04;;;;;;;29.80;17.23;;;;;;;;;;5072847;28;20048;-55
2020/12/30 09:52:34;;;;;;;29.23;13.13;;;;;;;;;;5072148;28;20036;-56
2020/12/30 09:55:00;;;;;;;30.23;18.50;;;;;;;;;;5072628;28;20123;-57
2020/12/30 09:57:26;;;;;;;14.20;5.40;;;;;;;;;;5072531;28;20036;-58
2020/12/30 09:59:52;;;;;;;12.30;4.00;;;;;;;;;;5072727;28;20024;-58
2020/12/30 10:02:18;;;;;;;9.93;3.30;;;;;;;;;;5072418;28;20024;-57
2020/12/30 10:04:44;;;;;;;13.10;4.57;;;;;;;;;;5058489;28;20026;-56
2020/12/30 10:07:10;;;;;;;16.00;9.10;;;;;;;;;;5072345;28;20411;-56
2020/12/30 10:09:36;;;;;;;11.25;4.40;;;;;;;;;;5072601;28;20451;-56
2020/12/30 10:12:02;;;;;;;13.70;6.97;;;;;;;;;;5072426;28;20012;-55
2020/12/30 10:14:28;;;;;;;14.45;5.75;;;;;;;;;;5072526;28;20071;-56
2020/12/30 10:16:54;;;;;;;10.80;4.50;;;;;;;;;;5072044;28;20021;-56
2020/12/30 10:19:20;;;;;;;25.92;14.05;;;;;;;;;;5072294;28;20028;-55
2020/12/30 10:21:46;;;;;;;25.02;11.77;;;;;;;;;;5071845;28;20024;-57
2020/12/30 10:24:12;;;;;;;15.05;7.05;;;;;;;;;;5071986;28;20051;-59
2020/12/30 10:26:39;;;;;;;14.40;5.43;;;;;;;;;;5071775;28;20070;-57
2020/12/30 10:29:05;;;;;;;14.82;5.65;;;;;;;;;;5071457;28;20072;-56
2020/12/30 10:31:31;;;;;;;20.58;10.32;;;;;;;;;;5071461;28;20035;-56
2020/12/30 10:33:59;;;;;;;12.82;3.85;;;;;;;;;;5072807;28;20021;-58
2020/12/30 10:36:32;;;;;;;8.52;2.17;;;;;;;;;;5072783;28;20025;-57
2020/12/30 10:39:01;;;;;;;22.60;7.95;;;;;;;;;;5071762;28;20564;-54
2020/12/30 10:41:29;;;;;;;14.27;4.25;;;;;;;;;;5071990;28;20028;-54
2020/12/30 10:43:55;;;;;;;12.48;2.75;;;;;;;;;;5071707;28;20456;-54
2020/12/30 10:46:21;;;;;;;9.55;2.72;;;;;;;;;;5071660;28;20464;-53
2020/12/30 10:48:48;;;;;;;12.80;4.00;;;;;;;;;;5071528;28;20036;-53
2020/12/30 10:51:14;;;;;;;17.15;4.80;;;;;;;;;;5071717;28;20032;-55
2020/12/30 10:53:41;;;;;;;13.20;5.03;;;;;;;;;;5068978;28;20031;-55
2020/12/30 10:56:11;;;;;;;11.68;2.47;;;;;;;;;;5069665;28;20078;-53
2020/12/30 10:58:38;;;;;;;14.57;2.70;;;;;;;;;;5059835;28;20085;-52
2020/12/30 11:01:10;;;;;;;17.50;3.47;;;;;;;;;;5073795;28;20051;-55
2020/12/30 11:03:37;;;;;;;10.88;2.00;;;;;;;;;;5071225;28;20468;-55
2020/12/30 11:06:03;;;;;;;10.20;2.92;;;;;;;;;;5071683;28;20499;-59
2020/12/30 11:08:29;;;;;;;12.10;2.50;;;;;;;;;;5071593;28;20495;-58
2020/12/30 11:10:59;;;;;;;14.50;2.63;;;;;;;;;;5071529;28;20032;-54
2020/12/30 11:13:25;;;;;;;17.27;3.83;;;;;;;;;;5071713;28;20052;-53
2020/12/30 11:15:51;;;;;;;16.45;4.20;;;;;;;;;;5071501;28;20494;-53
2020/12/30 11:18:17;;;;;;;21.67;7.22;;;;;;;;;;5069222;28;20032;-51
2020/12/30 11:20:43;;;;;;;15.02;4.07;;;;;;;;;;5069846;28;20503;-52
2020/12/30 11:23:10;;;;;;;18.27;4.03;;;;;;;;;;5068477;28;20040;-52
2020/12/30 11:25:36;;;;;;;18.25;6.05;;;;;;;;;;5070770;28;20095;-52
2020/12/30 11:28:03;;;;;;;14.00;6.30;;;;;;;;;;5072509;28;20027;-57
2020/12/30 11:30:29;;;;;;;20.30;6.22;;;;;;;;;;5064239;28;20472;-55
2020/12/30 11:32:55;;;;;;;13.93;3.15;;;;;;;;;;5055662;28;20025;-51
2020/12/30 11:35:21;;;;;;;10.88;2.13;;;;;;;;;;5056063;28;20031;-51
2020/12/30 11:37:47;;;;;;;18.30;3.53;;;;;;;;;;5064427;28;20442;-51
2020/12/30 11:40:13;;;;;;;21.05;7.20;;;;;;;;;;5055294;28;20028;-52
2020/12/30 11:42:40;;;;;;;14.98;5.38;;;;;;;;;;5074909;28;20491;-58
2020/12/30 11:45:07;;;;;;;16.83;4.43;;;;;;;;;;5072143;28;20024;-50
2020/12/30 11:47:33;;;;;;;15.57;4.72;;;;;;;;;;5056866;28;20029;-56
2020/12/30 11:50:00;;;;;;;14.43;3.92;;;;;;;;;;5057750;28;20041;-55
2020/12/30 11:52:26;;;;;;;15.63;3.60;;;;;;;;;;5038671;28;20368;-51
2020/12/30 11:54:52;;;;;;;21.58;4.30;;;;;;;;;;5056993;28;20385;-57
2020/12/30 11:57:18;;;;;;;21.80;6.68;;;;;;;;;;5065163;28;20114;-57
2020/12/30 11:59:44;;;;;;;19.17;4.60;;;;;;;;;;5057077;28;20025;-51
2020/12/30 12:02:11;;;;;;;25.13;4.03;;;;;;;;;;5054968;28;20044;-56
2020/12/30 12:04:37;;;;;;;26.20;7.53;;;;;;;;;;5056966;28;20025;-51
2020/12/30 12:07:03;;;;;;;18.95;5.13;;;;;;;;;;5057098;28;20393;-53
2020/12/30 12:09:29;;;;;;;18.05;4.18;;;;;;;;;;5068678;28;20043;-52
2020/12/30 12:11:56;;;;;;;18.73;4.82;;;;;;;;;;5059802;28;20063;-51
2020/12/30 12:14:22;;;;;;;17.85;4.03;;;;;;;;;;5057845;28;20047;-52
2020/12/30 12:16:52;;;;;;;37.42;10.45;;;;;;;;;;5063847;28;20029;-50
2020/12/30 12:19:18;;;;;;;21.05;5.03;;;;;;;;;;5071686;28;20046;-52
2020/12/30 12:21:44;;;;;;;26.73;7.60;;;;;;;;;;5056785;28;20099;-51
2020/12/30 12:24:10;;;;;;;30.58;6.05;;;;;;;;;;5062916;28;20054;-52
2020/12/30 12:26:36;;;;;;;29.98;12.25;;;;;;;;;;5058332;28;20033;-52
2020/12/30 12:29:18;;;;;;;18.25;4.57;;;;;;;;;;5074465;28;20060;-58
2020/12/30 12:31:44;;;;;;;;;;;;;;;;;;5074867;28;20411;-55
2020/12/30 12:34:10;;;;;;;21.33;7.00;;;;;;;;;;5074319;28;19922;-52
2020/12/30 12:36:36;;;;;;;17.73;4.63;;;;;;;;;;5071361;28;20100;-51
2020/12/30 12:39:03;;;;;;;15.35;4.10;;;;;;;;;;5074057;28;20025;-51
2020/12/30 12:41:29;;;;;;;18.38;4.68;;;;;;;;;;5061186;28;20083;-51
2020/12/30 12:43:55;;;;;;;17.27;7.07;;;;;;;;;;5072773;28;20071;-51
2020/12/30 12:46:21;;;;;;;20.38;6.95;;;;;;;;;;5073516;28;20150;-52
2020/12/30 12:48:47;;;;;;;23.48;8.05;;;;;;;;;;5072992;28;20503;-51
2020/12/30 12:51:13;;;;;;;19.45;4.70;;;;;;;;;;5073089;28;20024;-52
2020/12/30 12:53:39;;;;;;;19.92;4.40;;;;;;;;;;5072894;28;20040;-55
2020/12/30 12:56:05;;;;;;;21.50;4.60;;;;;;;;;;5073100;28;20419;-56
2020/12/30 12:58:33;;;;;;;17.10;3.20;;;;;;;;;;5072742;28;20129;-56
2020/12/30 13:00:59;;;;;;;24.88;11.93;;;;;;;;;;5072733;28;20009;-51
2020/12/30 13:03:25;;;;;;;22.70;6.30;;;;;;;;;;5073476;28;20033;-55
2020/12/30 13:05:51;;;;;;;23.83;10.20;;;;;;;;;;5073137;28;20025;-53
2020/12/30 13:08:17;;;;;;;26.13;10.95;;;;;;;;;;5063035;28;20041;-56
2020/12/30 13:10:43;;;;;;;48.08;25.98;;;;;;;;;;5059678;28;20073;-53
2020/12/30 13:13:10;;;;;;;18.85;4.10;;;;;;;;;;5053625;28;20075;-55
2020/12/30 13:15:36;;;;;;;36.63;13.15;;;;;;;;;;5070848;28;20070;-50
2020/12/30 13:18:02;;;;;;;21.77;6.60;;;;;;;;;;5073046;28;20480;-51
2020/12/30 13:20:28;;;;;;;24.95;8.30;;;;;;;;;;5073056;28;20040;-51
2020/12/30 13:22:54;;;;;;;28.70;13.38;;;;;;;;;;5072965;28;20017;-51
2020/12/30 13:25:20;;;;;;;17.25;6.82;;;;;;;;;;5072889;28;20059;-58
2020/12/30 13:27:46;;;;;;;25.40;10.23;;;;;;;;;;5072727;28;20066;-51
2020/12/30 13:30:12;;;;;;;17.63;7.50;;;;;;;;;;5073005;28;20469;-51
2020/12/30 13:32:38;;;;;;;15.75;4.55;;;;;;;;;;5072708;28;20519;-50
2020/12/30 13:35:04;;;;;;;11.82;4.13;;;;;;;;;;5072150;28;20050;-57
2020/12/30 13:37:30;;;;;;;20.77;7.47;;;;;;;;;;5072739;28;20025;-56
2020/12/30 13:39:56;;;;;;;23.17;8.43;;;;;;;;;;5072733;28;20035;-51
2020/12/30 13:42:22;;;;;;;22.50;7.22;;;;;;;;;;5072623;28;20028;-51
2020/12/30 13:44:48;;;;;;;22.27;11.15;;;;;;;;;;5062732;28;20025;-56
2020/12/30 13:47:14;;;;;;;23.33;10.68;;;;;;;;;;5064930;28;20025;-54
2020/12/30 13:49:40;;;;;;;27.65;14.68;;;;;;;;;;5057238;28;20029;-51
2020/12/30 13:52:06;;;;;;;25.75;14.77;;;;;;;;;;5072291;28;20021;-56
2020/12/30 13:54:32;;;;;;;30.75;17.63;;;;;;;;;;5071711;28;20035;-55
2020/12/30 13:56:58;;;;;;;43.47;22.75;;;;;;;;;;5063194;28;20021;-51
2020/12/30 13:59:24;;;;;;;34.85;21.70;;;;;;;;;;5066546;28;20069;-56
2020/12/30 14:01:55;;;;;;;35.25;21.23;;;;;;;;;;5058796;28;20387;-52
2020/12/30 14:04:21;;;;;;;48.78;28.80;;;;;;;;;;5069357;28;20029;-51
2020/12/30 14:06:47;;;;;;;34.47;22.95;;;;;;;;;;5071922;28;20025;-52
2020/12/30 14:09:13;;;;;;;29.67;16.27;;;;;;;;;;5071820;28;20085;-51
2020/12/30 14:11:39;;;;;;;16.52;9.02;;;;;;;;;;5071627;28;20021;-54
2020/12/30 14:14:05;;;;;;;17.13;8.10;;;;;;;;;;5070187;28;20121;-50
2020/12/30 14:16:31;;;;;;;16.70;7.13;;;;;;;;;;5070696;28;20047;-52
2020/12/30 14:18:57;;;;;;;14.52;6.93;;;;;;;;;;5064035;28;20029;-52
2020/12/30 14:21:23;;;;;;;75.72;38.38;;;;;;;;;;5061537;28;20107;-55
2020/12/30 14:23:49;;;;;;;65.18;34.20;;;;;;;;;;5057451;28;20487;-51
2020/12/30 14:26:22;;;;;;;12.10;5.45;;;;;;;;;;5052568;28;20056;-56
2020/12/30 14:28:48;;;;;;;9.68;4.47;;;;;;;;;;5070462;28;20041;-56
2020/12/30 14:31:14;;;;;;;9.60;2.10;;;;;;;;;;5061386;28;20021;-55